Time;durP1;ratioP1;P1;durP2;ratioP2;P2;SDS_P1;SDS_P2;PMS_P1;PMS_P2;Temp;Humidity;BMP_temperature;BMP_pressure;BME280_temperature;BME280_humidity;BME280_pressure;Samples;Min_cycle;Max_cycle;Signal;HPM_P1;HPM_P2
2023/06/28 00:01:00;;;;;;;5.88;2.38;;;20.30;99.90;;;;;;4860850;29;20029;-82
2023/06/28 00:03:26;;;;;;;4.10;1.98;;;20.30;99.90;;;;;;4860354;29;20120;-82
2023/06/28 00:05:52;;;;;;;4.25;1.77;;;20.30;99.90;;;;;;4860865;29;20057;-82
2023/06/28 00:08:17;;;;;;;6.30;1.63;;;20.40;99.90;;;;;;4860986;29;20053;-82
2023/06/28 00:10:43;;;;;;;3.75;2.15;;;20.40;99.90;;;;;;4860124;29;20022;-82
2023/06/28 00:13:08;;;;;;;3.72;2.03;;;20.40;99.90;;;;;;4860803;29;20037;-82
2023/06/28 00:15:34;;;;;;;3.65;1.90;;;20.50;99.90;;;;;;4860284;29;20029;-82
2023/06/28 00:18:02;;;;;;;3.25;1.95;;;20.40;99.90;;;;;;4860612;29;20033;-82
2023/06/28 00:20:28;;;;;;;3.92;2.00;;;20.40;99.90;;;;;;4860749;29;20029;-82
2023/06/28 00:22:54;;;;;;;5.03;2.03;;;20.30;99.90;;;;;;4859483;29;20085;-82
2023/06/28 00:25:20;;;;;;;4.95;2.10;;;20.30;99.90;;;;;;4860473;29;20411;-82
2023/06/28 00:27:46;;;;;;;5.57;1.73;;;20.40;99.90;;;;;;4860408;29;20466;-82
2023/06/28 00:30:12;;;;;;;5.75;2.83;;;20.30;99.90;;;;;;4860009;29;20021;-82
2023/06/28 00:32:38;;;;;;;3.65;2.20;;;20.30;99.90;;;;;;4860154;29;20502;-81
2023/06/28 00:35:05;;;;;;;5.18;1.58;;;20.30;99.90;;;;;;4860436;29;20077;-82
2023/06/28 00:37:31;;;;;;;3.53;1.80;;;20.30;99.90;;;;;;4860039;29;20180;-82
2023/06/28 00:39:57;;;;;;;3.55;1.58;;;20.20;99.90;;;;;;4860479;29;20025;-83
2023/06/28 00:42:22;;;;;;;4.57;1.98;;;20.20;99.90;;;;;;4860395;29;20447;-82
2023/06/28 00:44:48;;;;;;;5.57;1.70;;;20.10;99.90;;;;;;4859607;29;20037;-82
2023/06/28 00:47:14;;;;;;;6.85;2.15;;;20.00;99.90;;;;;;4860338;29;20394;-82
2023/06/28 00:49:41;;;;;;;3.65;2.20;;;20.00;99.90;;;;;;4860332;29;20046;-82
2023/06/28 00:52:08;;;;;;;4.25;2.00;;;20.00;99.90;;;;;;4859092;29;20030;-82
2023/06/28 00:54:34;;;;;;;3.63;1.95;;;20.10;99.90;;;;;;4859878;29;20066;-82
2023/06/28 00:57:00;;;;;;;4.97;2.75;;;20.10;99.90;;;;;;4860157;29;20551;-82
2023/06/28 00:59:26;;;;;;;9.85;1.83;;;20.00;99.90;;;;;;4859610;29;20025;-82
2023/06/28 01:01:53;;;;;;;5.43;2.03;;;20.00;99.90;;;;;;4859935;29;20067;-82
2023/06/28 01:04:18;;;;;;;4.88;2.05;;;20.00;99.90;;;;;;4860430;29;20040;-82
2023/06/28 01:06:51;;;;;;;4.57;1.90;;;19.90;99.90;;;;;;4859555;29;20037;-82
2023/06/28 01:09:18;;;;;;;5.70;2.17;;;19.90;99.90;;;;;;4860523;29;20022;-82
2023/06/28 01:11:45;;;;;;;3.40;1.88;;;19.90;99.90;;;;;;4859533;29;20368;-82
2023/06/28 01:14:11;;;;;;;5.82;1.65;;;19.90;99.90;;;;;;4860206;29;20029;-82
2023/06/28 01:16:36;;;;;;;6.65;2.30;;;19.80;99.90;;;;;;4860123;29;20093;-82
2023/06/28 01:19:03;;;;;;;5.10;2.28;;;19.90;99.90;;;;;;4859275;29;20080;-82
2023/06/28 01:21:33;;;;;;;4.15;2.20;;;19.90;99.90;;;;;;4860070;29;20062;-82
2023/06/28 01:24:02;;;;;;;;;;;20.10;99.90;;;;;;4859970;29;20541;-82
2023/06/28 01:26:28;;;;;;;8.25;2.78;;;19.90;99.90;;;;;;4859528;29;19908;-82
2023/06/28 01:28:54;;;;;;;6.10;2.35;;;20.60;99.90;;;;;;4859641;29;20505;-82
2023/06/28 01:31:20;;;;;;;5.22;2.60;;;19.90;99.90;;;;;;4860091;29;20128;-82
2023/06/28 01:33:48;;;;;;;4.03;2.47;;;20.40;99.90;;;;;;4858967;29;20105;-82
2023/06/28 01:36:13;;;;;;;4.25;2.47;;;19.80;99.90;;;;;;4860066;29;20041;-82
2023/06/28 01:38:41;;;;;;;5.88;2.50;;;19.90;99.90;;;;;;4859893;29;20040;-82
2023/06/28 01:41:08;;;;;;;5.70;3.13;;;19.90;99.90;;;;;;4858637;29;20093;-83
2023/06/28 01:43:34;;;;;;;4.53;2.40;;;19.90;99.90;;;;;;4859800;29;20072;-82
2023/06/28 01:46:00;;;;;;;4.97;2.65;;;20.50;99.90;;;;;;4859568;29;20083;-82
2023/06/28 01:48:26;;;;;;;4.20;2.63;;;20.00;99.90;;;;;;4859299;29;20116;-82
2023/06/28 01:50:51;;;;;;;5.03;2.53;;;20.00;99.90;;;;;;4859753;29;20034;-82
2023/06/28 01:53:18;;;;;;;7.10;2.75;;;20.00;99.90;;;;;;4859718;29;20029;-82
2023/06/28 01:55:44;;;;;;;6.03;2.67;;;20.20;99.90;;;;;;4861243;29;20029;-82
2023/06/28 01:58:09;;;;;;;9.32;2.75;;;19.90;99.90;;;;;;4863222;29;20030;-82
2023/06/28 02:00:35;;;;;;;7.60;3.03;;;20.10;99.90;;;;;;4862927;29;20398;-82
2023/06/28 02:03:00;;;;;;;3.05;2.30;;;19.90;99.90;;;;;;4862249;29;20040;-82
2023/06/28 02:05:26;;;;;;;6.22;3.28;;;19.80;99.90;;;;;;4863121;29;20113;-82
2023/06/28 02:07:52;;;;;;;7.05;3.30;;;20.50;99.90;;;;;;4862990;29;20042;-82
2023/06/28 02:10:20;;;;;;;7.63;3.13;;;19.80;99.90;;;;;;4862762;29;20474;-82
2023/06/28 02:12:46;;;;;;;7.75;3.45;;;19.80;99.90;;;;;;4862784;29;20037;-82
2023/06/28 02:15:13;;;;;;;7.03;3.15;;;19.80;99.90;;;;;;4862252;29;20435;-82
2023/06/28 02:17:39;;;;;;;9.38;3.53;;;19.80;99.90;;;;;;4863285;29;20166;-82
2023/06/28 02:20:09;;;;;;;5.43;3.22;;;19.90;99.90;;;;;;4862966;29;20066;-82
2023/06/28 02:22:35;;;;;;;5.85;3.40;;;19.70;99.90;;;;;;4862237;29;20193;-82
2023/06/28 02:25:00;;;;;;;8.00;3.22;;;20.20;99.90;;;;;;4862492;29;20540;-82
2023/06/28 02:27:26;;;;;;;4.45;3.08;;;19.70;99.90;;;;;;4862406;29;20029;-81
2023/06/28 02:29:51;;;;;;;9.45;3.63;;;19.70;99.90;;;;;;4861498;29;20036;-82
2023/06/28 02:32:17;;;;;;;7.80;3.00;;;19.70;99.90;;;;;;4862912;29;20033;-82
2023/06/28 02:34:43;;;;;;;7.70;3.50;;;19.70;99.90;;;;;;4862709;29;20503;-82
2023/06/28 02:37:08;;;;;;;6.25;2.92;;;19.70;99.90;;;;;;4861693;29;20029;-82
2023/06/28 02:39:34;;;;;;;5.30;3.13;;;19.70;99.90;;;;;;4862404;29;20467;-82
2023/06/28 02:41:59;;;;;;;6.78;2.83;;;19.80;99.90;;;;;;4862343;29;20045;-82
2023/06/28 02:44:25;;;;;;;5.30;3.05;;;19.70;99.90;;;;;;4861717;29;20117;-83
2023/06/28 02:46:50;;;;;;;4.32;3.50;;;19.70;99.90;;;;;;4862144;29;20034;-82
2023/06/28 02:49:16;;;;;;;12.32;3.65;;;19.70;99.90;;;;;;4862557;29;20041;-82
2023/06/28 02:51:41;;;;;;;8.57;3.55;;;19.70;99.90;;;;;;4861689;29;20132;-82
2023/06/28 02:54:07;;;;;;;6.82;3.67;;;19.70;99.90;;;;;;4862138;29;20029;-82
2023/06/28 02:56:34;;;;;;;8.55;4.07;;;19.70;99.90;;;;;;4862319;29;20026;-83
2023/06/28 02:58:59;;;;;;;11.45;4.07;;;19.80;99.90;;;;;;4861260;29;20033;-82
2023/06/28 03:01:25;;;;;;;7.68;3.60;;;19.70;99.90;;;;;;4862096;29;20029;-83
2023/06/28 03:03:51;;;;;;;11.57;3.83;;;19.70;99.90;;;;;;4862048;29;20085;-82
2023/06/28 03:06:19;;;;;;;5.30;3.47;;;20.10;99.90;;;;;;4861544;29;20033;-82
2023/06/28 03:08:44;;;;;;;12.82;4.50;;;19.70;99.90;;;;;;4861956;29;20185;-82
2023/06/28 03:11:10;;;;;;;8.82;4.00;;;20.30;99.90;;;;;;4861758;29;20033;-82
2023/06/28 03:13:36;;;;;;;8.52;4.57;;;19.80;99.90;;;;;;4861316;29;20022;-83
2023/06/28 03:16:01;;;;;;;6.93;4.03;;;19.80;99.90;;;;;;4862052;29;20109;-83
2023/06/28 03:18:27;;;;;;;7.18;4.25;;;20.20;99.90;;;;;;4861758;29;20021;-82
2023/06/28 03:20:53;;;;;;;5.47;3.70;;;19.80;99.90;;;;;;4861481;29;20513;-83
2023/06/28 03:23:19;;;;;;;3.97;3.67;;;20.50;99.90;;;;;;4861782;29;20037;-82
2023/06/28 03:25:44;;;;;;;6.68;4.30;;;19.70;99.90;;;;;;4861378;29;20477;-82
2023/06/28 03:28:11;;;;;;;6.75;3.67;;;19.80;99.90;;;;;;4861569;29;20085;-82
2023/06/28 03:30:37;;;;;;;7.60;4.40;;;19.80;99.90;;;;;;4861830;29;20474;-82
2023/06/28 03:33:03;;;;;;;7.15;4.40;;;19.70;99.90;;;;;;4860569;29;20094;-82
2023/06/28 03:35:29;;;;;;;7.28;4.05;;;19.70;99.90;;;;;;4861586;29;20098;-82
2023/06/28 03:37:56;;;;;;;7.00;4.15;;;19.70;99.90;;;;;;4861203;29;20065;-83
2023/06/28 03:40:22;;;;;;;5.93;4.70;;;19.80;99.90;;;;;;4860642;29;20030;-82
2023/06/28 03:42:48;;;;;;;8.70;4.60;;;19.80;99.90;;;;;;4861217;29;20047;-82
2023/06/28 03:45:15;;;;;;;12.93;5.10;;;20.10;99.90;;;;;;4861336;29;20036;-82
2023/06/28 03:47:41;;;;;;;8.50;4.57;;;19.80;99.90;;;;;;4860733;29;20478;-83
2023/06/28 03:50:07;;;;;;;6.97;4.47;;;19.70;99.90;;;;;;4861167;29;20124;-82
2023/06/28 03:52:33;;;;;;;10.85;5.65;;;19.70;99.90;;;;;;4861337;29;20120;-82
2023/06/28 03:54:59;;;;;;;10.68;5.10;;;19.70;99.90;;;;;;4860238;29;20033;-82
2023/06/28 03:57:25;;;;;;;6.03;4.35;;;19.70;99.90;;;;;;4861264;29;20037;-82
2023/06/28 03:59:50;;;;;;;10.30;5.38;;;19.70;99.90;;;;;;4861082;29;20021;-83
2023/06/28 04:02:16;;;;;;;7.00;4.45;;;19.70;99.90;;;;;;4860034;29;20049;-82
2023/06/28 04:04:41;;;;;;;6.53;5.10;;;19.70;99.90;;;;;;4861144;29;20434;-83
2023/06/28 04:07:07;;;;;;;9.05;5.47;;;19.70;99.90;;;;;;4860806;29;20074;-83
2023/06/28 04:09:33;;;;;;;9.57;5.05;;;19.70;99.90;;;;;;4860245;29;20022;-83
2023/06/28 04:11:59;;;;;;;10.43;5.75;;;19.80;99.90;;;;;;4860607;29;20052;-82
2023/06/28 04:14:26;;;;;;;8.88;5.13;;;19.70;99.90;;;;;;4861039;29;20112;-82
2023/06/28 04:16:52;;;;;;;12.35;5.78;;;19.70;99.90;;;;;;4860032;29;20041;-82
2023/06/28 04:19:18;;;;;;;11.10;5.75;;;19.70;99.90;;;;;;4860602;29;20041;-82
2023/06/28 04:21:44;;;;;;;10.82;5.95;;;19.80;99.90;;;;;;4860047;29;20041;-82
2023/06/28 04:24:09;;;;;;;9.75;5.63;;;19.70;99.90;;;;;;4860773;29;20117;-83
2023/06/28 04:26:35;;;;;;;13.20;6.55;;;19.70;99.90;;;;;;4861029;29;20029;-82
2023/06/28 04:29:01;;;;;;;14.77;6.32;;;19.70;99.90;;;;;;4859978;29;20444;-83
2023/06/28 04:31:27;;;;;;;13.98;6.40;;;19.70;99.90;;;;;;4860339;29;20029;-82
2023/06/28 04:33:55;;;;;;;7.78;5.88;;;20.30;99.90;;;;;;4860478;29;20116;-83
2023/06/28 04:36:21;;;;;;;13.27;6.75;;;19.70;99.90;;;;;;4860187;29;20041;-83
2023/06/28 04:38:54;;;;;;;9.40;5.70;;;19.70;99.90;;;;;;4860227;29;20090;-82
2023/06/28 04:41:21;;;;;;;12.75;6.70;;;20.00;99.90;;;;;;4860693;29;20026;-83
2023/06/28 04:43:47;;;;;;;11.45;6.70;;;19.70;99.90;;;;;;4859633;29;20086;-83
2023/06/28 04:46:12;;;;;;;11.77;6.78;;;19.70;99.90;;;;;;4860459;29;20029;-83
2023/06/28 04:48:40;;;;;;;9.65;6.15;;;19.70;99.90;;;;;;4860519;29;20068;-82
2023/06/28 04:51:05;;;;;;;8.30;5.78;;;19.70;99.90;;;;;;4859092;29;20078;-83
2023/06/28 04:53:31;;;;;;;9.07;5.97;;;19.60;99.90;;;;;;4860390;29;20415;-82
2023/06/28 04:55:56;;;;;;;15.55;6.70;;;19.60;99.90;;;;;;4860141;29;20025;-83
2023/06/28 04:58:22;;;;;;;11.52;6.50;;;20.40;99.90;;;;;;4859268;29;20029;-82
2023/06/28 05:00:48;;;;;;;15.57;7.45;;;19.60;99.90;;;;;;4860084;29;20032;-82
2023/06/28 05:03:15;;;;;;;10.75;7.20;;;19.60;99.90;;;;;;4860140;29;20448;-82
2023/06/28 05:05:42;;;;;;;15.90;6.93;;;19.60;99.90;;;;;;4859446;29;20036;-82
2023/06/28 05:08:07;;;;;;;14.98;6.97;;;20.30;99.90;;;;;;4859768;29;20037;-83
2023/06/28 05:10:33;;;;;;;10.30;6.88;;;19.70;99.90;;;;;;4860079;29;20022;-82
2023/06/28 05:12:59;;;;;;;14.82;7.20;;;19.60;99.90;;;;;;4859094;29;20037;-83
2023/06/28 05:15:25;;;;;;;12.00;7.30;;;19.70;99.90;;;;;;4860516;29;20482;-83
2023/06/28 05:17:51;;;;;;;15.10;7.95;;;19.70;99.90;;;;;;4859491;29;20398;-83
2023/06/28 05:20:17;;;;;;;13.02;7.65;;;19.70;99.90;;;;;;4859532;29;20062;-82
2023/06/28 05:22:49;;;;;;;14.27;8.05;;;19.80;99.90;;;;;;4859782;29;20062;-83
2023/06/28 05:25:15;;;;;;;14.35;7.32;;;19.70;99.90;;;;;;4859108;29;20164;-82
2023/06/28 05:27:41;;;;;;;14.10;7.63;;;19.70;99.90;;;;;;4859797;29;20025;-82
2023/06/28 05:30:07;;;;;;;11.82;7.50;;;20.30;99.90;;;;;;4861045;29;20036;-82
2023/06/28 05:32:33;;;;;;;9.63;6.70;;;19.70;99.90;;;;;;4863039;29;20048;-82
2023/06/28 05:35:01;;;;;;;17.70;9.18;;;19.80;99.90;;;;;;4863007;29;20478;-82
2023/06/28 05:37:27;;;;;;;13.00;7.55;;;19.70;99.90;;;;;;4863493;29;20094;-82
2023/06/28 05:39:53;;;;;;;11.90;7.63;;;19.70;99.90;;;;;;4861713;29;20026;-82
2023/06/28 05:42:18;;;;;;;15.68;7.80;;;19.80;99.90;;;;;;4862998;29;20538;-82
2023/06/28 05:44:44;;;;;;;8.70;7.15;;;19.80;99.90;;;;;;4863560;29;20030;-82
2023/06/28 05:47:09;;;;;;;13.90;7.90;;;19.80;99.90;;;;;;4862434;29;20032;-82
2023/06/28 05:49:37;;;;;;;11.23;7.50;;;19.70;99.90;;;;;;4863286;29;20566;-82
2023/06/28 05:52:04;;;;;;;12.60;7.50;;;19.70;99.90;;;;;;4863371;29;20026;-82
2023/06/28 05:54:30;;;;;;;11.38;7.53;;;19.80;99.90;;;;;;4862725;29;20382;-82
2023/06/28 05:56:57;;;;;;;13.63;8.00;;;19.80;99.90;;;;;;4862991;29;20074;-82
2023/06/28 05:59:22;;;;;;;11.98;7.22;;;19.80;99.90;;;;;;4862742;29;20426;-82
2023/06/28 06:01:48;;;;;;;16.98;8.57;;;19.70;99.90;;;;;;4862326;29;20040;-83
2023/06/28 06:04:14;;;;;;;12.02;7.78;;;19.70;99.90;;;;;;4862795;29;20073;-83
2023/06/28 06:06:39;;;;;;;13.43;7.30;;;19.70;99.90;;;;;;4862973;29;20021;-83
2023/06/28 06:09:05;;;;;;;14.60;8.00;;;19.80;99.90;;;;;;4861952;29;20040;-82
2023/06/28 06:11:30;;;;;;;10.13;7.80;;;20.60;99.90;;;;;;4862777;29;20053;-83
2023/06/28 06:13:56;;;;;;;11.90;7.97;;;19.80;99.90;;;;;;4862803;29;20025;-82
2023/06/28 06:16:21;;;;;;;20.35;8.98;;;19.90;99.90;;;;;;4862239;29;20383;-82
2023/06/28 06:18:47;;;;;;;12.20;6.72;;;19.80;99.90;;;;;;4862332;29;20030;-82
2023/06/28 06:21:13;;;;;;;18.05;7.38;;;20.20;99.90;;;;;;4862342;29;20026;-83
2023/06/28 06:23:38;;;;;;;14.82;7.90;;;19.80;99.90;;;;;;4862665;29;20054;-83
2023/06/28 06:26:04;;;;;;;12.27;7.85;;;19.60;99.90;;;;;;4862252;29;20200;-83
2023/06/28 06:28:29;;;;;;;13.52;7.72;;;19.70;99.90;;;;;;4861830;29;20029;-83
2023/06/28 06:30:55;;;;;;;15.82;8.82;;;19.70;99.90;;;;;;4861809;29;20394;-83
2023/06/28 06:33:20;;;;;;;12.60;7.60;;;19.70;99.90;;;;;;4862477;29;20118;-82
2023/06/28 06:35:48;;;;;;;19.73;7.15;;;19.80;99.90;;;;;;4861424;29;20025;-82
2023/06/28 06:38:13;;;;;;;11.07;6.85;;;19.70;99.90;;;;;;4861989;29;20025;-82
2023/06/28 06:40:39;;;;;;;13.20;7.72;;;20.50;99.90;;;;;;4861967;29;20026;-83
2023/06/28 06:43:05;;;;;;;14.85;7.10;;;19.70;99.90;;;;;;4861307;29;20053;-83
2023/06/28 06:45:30;;;;;;;10.50;6.80;;;20.30;99.90;;;;;;4862225;29;20037;-83
2023/06/28 06:47:56;;;;;;;12.45;6.95;;;19.80;99.90;;;;;;4861837;29;20055;-82
2023/06/28 06:50:21;;;;;;;11.25;6.07;;;19.70;99.90;;;;;;4862019;29;20026;-82
2023/06/28 06:52:47;;;;;;;10.68;6.75;;;19.80;99.90;;;;;;4862208;29;20094;-82
2023/06/28 06:55:12;;;;;;;9.65;6.93;;;19.70;99.90;;;;;;4862338;29;20080;-83
2023/06/28 06:57:38;;;;;;;9.75;6.05;;;20.50;99.90;;;;;;4861509;29;20032;-82
2023/06/28 07:00:05;;;;;;;12.40;6.75;;;19.90;99.90;;;;;;4861890;29;20038;-83
2023/06/28 07:02:30;;;;;;;18.48;7.70;;;19.80;99.90;;;;;;4862056;29;20037;-83
2023/06/28 07:04:56;;;;;;;11.30;7.53;;;19.70;99.90;;;;;;4861136;29;20374;-82
2023/06/28 07:07:21;;;;;;;9.82;6.03;;;19.70;99.90;;;;;;4862290;29;20034;-82
2023/06/28 07:09:47;;;;;;;13.70;6.30;;;19.80;99.90;;;;;;4861478;29;20035;-83
2023/06/28 07:12:13;;;;;;;9.13;6.30;;;19.80;99.90;;;;;;4861479;29;20030;-83
2023/06/28 07:14:38;;;;;;;10.07;6.22;;;19.80;99.90;;;;;;4862071;29;20030;-83
2023/06/28 07:17:04;;;;;;;11.07;6.00;;;19.80;99.90;;;;;;4861640;29;20669;-83
2023/06/28 07:19:29;;;;;;;16.13;7.07;;;19.80;99.90;;;;;;4861186;29;20029;-82
2023/06/28 07:21:55;;;;;;;27.20;7.65;;;19.90;99.90;;;;;;4861302;29;20034;-82
2023/06/28 07:24:21;;;;;;;16.58;6.70;;;20.40;99.90;;;;;;4861637;29;20109;-83
2023/06/28 07:26:46;;;;;;;13.23;5.47;;;19.90;99.90;;;;;;4860690;29;20105;-83
2023/06/28 07:29:12;;;;;;;11.40;5.70;;;19.90;99.90;;;;;;4861761;29;20490;-83
2023/06/28 07:31:38;;;;;;;12.23;5.25;;;20.00;99.90;;;;;;4860871;29;20021;-83
2023/06/28 07:34:06;;;;;;;13.38;6.03;;;20.00;99.90;;;;;;4860962;29;20106;-82
2023/06/28 07:36:32;;;;;;;53.95;10.20;;;20.00;99.90;;;;;;4861764;29;20036;-83
2023/06/28 07:38:58;;;;;;;14.93;6.85;;;20.10;99.90;;;;;;4860652;29;20122;-82
2023/06/28 07:41:23;;;;;;;6.75;4.53;;;19.90;99.90;;;;;;4861413;29;20427;-82
2023/06/28 07:43:49;;;;;;;9.15;5.20;;;20.30;99.90;;;;;;4861143;29;20037;-82
2023/06/28 07:46:30;;;;;;;9.85;6.10;;;19.90;99.90;;;;;;4860777;29;20029;-82
2023/06/28 07:48:59;;;;;;;11.32;5.82;;;20.00;99.90;;;;;;4861340;29;20033;-82
2023/06/28 07:51:24;;;;;;;8.23;5.70;;;20.00;99.90;;;;;;4861374;29;20029;-82
2023/06/28 07:53:50;;;;;;;9.63;5.47;;;20.00;99.90;;;;;;4859650;29;20037;-82
2023/06/28 07:56:15;;;;;;;13.65;5.82;;;20.00;99.90;;;;;;4861189;29;20123;-82
2023/06/28 07:58:41;;;;;;;14.00;6.03;;;20.50;99.90;;;;;;4861023;29;20034;-82
2023/06/28 08:01:06;;;;;;;11.57;6.05;;;20.00;99.90;;;;;;4860032;29;20034;-82
2023/06/28 08:03:32;;;;;;;11.07;5.88;;;20.00;99.90;;;;;;4860985;29;20509;-82
2023/06/28 08:05:58;;;;;;;11.95;6.95;;;20.00;99.90;;;;;;4860783;29;20030;-82
2023/06/28 08:08:24;;;;;;;13.10;6.88;;;20.00;99.90;;;;;;4860366;29;20033;-82
2023/06/28 08:10:49;;;;;;;14.82;6.35;;;20.00;99.90;;;;;;4860708;29;20406;-82
2023/06/28 08:13:15;;;;;;;27.60;8.50;;;20.00;99.90;;;;;;4860911;29;20129;-82
2023/06/28 08:15:42;;;;;;;19.77;8.23;;;20.10;99.90;;;;;;4860243;29;20057;-83
2023/06/28 08:18:09;;;;;;;35.17;9.57;;;20.00;99.90;;;;;;4860737;29;20030;-83
2023/06/28 08:20:35;;;;;;;13.60;7.22;;;20.00;99.90;;;;;;4860924;29;20060;-83
2023/06/28 08:23:02;;;;;;;14.48;7.70;;;20.50;99.90;;;;;;4859765;29;20490;-83
2023/06/28 08:25:27;;;;;;;11.93;6.63;;;20.10;99.90;;;;;;4860559;29;20062;-83
2023/06/28 08:27:53;;;;;;;16.05;6.88;;;20.10;99.90;;;;;;4859701;29;20144;-83
2023/06/28 08:30:19;;;;;;;14.50;7.93;;;20.50;99.90;;;;;;4860654;29;20041;-83
2023/06/28 08:32:45;;;;;;;11.90;6.63;;;20.20;99.90;;;;;;4860663;29;20033;-82
2023/06/28 08:35:11;;;;;;;10.48;7.28;;;20.40;99.90;;;;;;4859533;29;20391;-83
2023/06/28 08:37:36;;;;;;;14.75;6.95;;;20.10;99.90;;;;;;4860691;29;20034;-83
2023/06/28 08:40:05;;;;;;;11.63;7.78;;;20.90;99.90;;;;;;4860277;29;20562;-83
2023/06/28 08:42:33;;;;;;;19.42;7.78;;;20.20;99.90;;;;;;4859394;29;20042;-82
2023/06/28 08:45:02;;;;;;;17.25;8.65;;;20.30;99.90;;;;;;4860279;29;20030;-83
2023/06/28 08:47:30;;;;;;;15.45;8.60;;;20.30;99.90;;;;;;4860580;29;20068;-83
2023/06/28 08:49:56;;;;;;;13.98;7.75;;;20.30;99.90;;;;;;4859479;29;20041;-83
2023/06/28 08:52:23;;;;;;;11.10;7.82;;;20.40;99.90;;;;;;4860342;29;20036;-83
2023/06/28 08:54:49;;;;;;;19.58;10.55;;;20.40;99.90;;;;;;4860120;29;20030;-82
2023/06/28 08:57:16;;;;;;;19.25;10.25;;;20.40;99.90;;;;;;4860013;29;20041;-83
2023/06/28 08:59:42;;;;;;;13.70;9.25;;;20.50;99.90;;;;;;4860342;29;20379;-82
2023/06/28 09:02:15;;;;;;;19.65;10.10;;;20.50;99.90;;;;;;4859756;29;20038;-83
2023/06/28 09:04:41;;;;;;;16.38;9.98;;;20.60;99.90;;;;;;4859452;29;20025;-83
2023/06/28 09:07:07;;;;;;;17.35;10.05;;;20.50;99.90;;;;;;4859802;29;20046;-83
2023/06/28 09:09:35;;;;;;;15.13;9.52;;;20.50;99.90;;;;;;4860041;29;20029;-83
2023/06/28 09:12:02;;;;;;;19.25;10.15;;;20.60;99.90;;;;;;4858953;29;20055;-82
2023/06/28 09:14:28;;;;;;;23.85;10.73;;;20.60;99.90;;;;;;4859737;29;20040;-83
2023/06/28 09:16:54;;;;;;;16.40;10.80;;;20.60;99.90;;;;;;4859762;29;20033;-83
2023/06/28 09:19:20;;;;;;;27.65;11.88;;;20.70;99.90;;;;;;4859443;29;20032;-83
2023/06/28 09:21:45;;;;;;;22.92;10.77;;;20.70;99.90;;;;;;4859614;29;20030;-83
2023/06/28 09:24:12;;;;;;;17.45;11.07;;;20.70;99.90;;;;;;4859482;29;20319;-83
2023/06/28 09:26:40;;;;;;;22.38;11.77;;;20.80;99.90;;;;;;4859900;29;20058;-83
2023/06/28 09:29:10;;;;;;;15.90;10.38;;;20.80;99.90;;;;;;4859802;29;20052;-83
2023/06/28 09:31:44;;;;;;;25.08;11.82;;;20.80;99.90;;;;;;4859362;29;20121;-83
2023/06/28 09:34:10;;;;;;;23.15;10.45;;;20.80;99.90;;;;;;4859944;29;20044;-82
2023/06/28 09:36:38;;;;;;;16.05;9.27;;;21.40;99.90;;;;;;4859921;29;20029;-82
2023/06/28 09:39:05;;;;;;;16.17;9.32;;;21.30;99.90;;;;;;4858859;29;20057;-83
2023/06/28 09:41:38;;;;;;;20.65;9.80;;;20.80;99.90;;;;;;4859968;29;20026;-83
2023/06/28 09:44:05;;;;;;;21.23;11.75;;;20.90;99.90;;;;;;4859492;29;20599;-83
2023/06/28 09:46:32;;;;;;;17.90;9.93;;;20.80;99.90;;;;;;4859370;29;20021;-82
2023/06/28 09:48:58;;;;;;;17.17;9.75;;;20.90;99.90;;;;;;4859403;29;20114;-82
2023/06/28 09:51:23;;;;;;;16.88;11.43;;;20.90;99.90;;;;;;4859748;29;20110;-82
2023/06/28 09:53:54;;;;;;;25.50;10.77;;;20.90;99.90;;;;;;4859055;29;20483;-82
2023/06/28 09:56:38;;;;;;;19.90;11.23;;;21.00;99.90;;;;;;4859830;29;20034;-83
2023/06/28 09:59:08;;;;;;;19.88;10.70;;;21.00;99.90;;;;;;4859393;29;20105;-82
2023/06/28 10:01:37;;;;;;;;;;;21.00;99.90;;;;;;4859253;29;20033;-83
2023/06/28 10:04:05;;;;;;;14.80;10.63;;;21.00;99.90;;;;;;4859895;29;19998;-82
2023/06/28 10:06:35;;;;;;;18.58;11.02;;;21.00;99.90;;;;;;4859045;29;20064;-82
2023/06/28 10:09:00;;;;;;;16.75;9.90;;;21.00;99.90;;;;;;4859634;29;20030;-83
2023/06/28 10:11:30;;;;;;;15.85;11.48;;;21.00;99.90;;;;;;4859217;29;20151;-83
2023/06/28 10:13:56;;;;;;;25.08;10.82;;;21.00;99.90;;;;;;4858731;29;20112;-83
2023/06/28 10:16:24;;;;;;;25.65;10.85;;;21.00;99.90;;;;;;4861217;29;20026;-83
2023/06/28 10:18:50;;;;;;;20.40;11.10;;;21.10;99.90;;;;;;4862657;29;20371;-82
2023/06/28 10:21:17;;;;;;;16.80;10.27;;;21.10;99.90;;;;;;4862354;29;20051;-83
2023/06/28 10:23:43;;;;;;;14.05;9.65;;;21.20;99.90;;;;;;4862387;29;20045;-83
2023/06/28 10:26:12;;;;;;;17.40;10.60;;;21.20;99.90;;;;;;4862989;29;20109;-83
2023/06/28 10:28:40;;;;;;;17.60;9.75;;;21.20;99.90;;;;;;4861933;29;20101;-83
2023/06/28 10:31:06;;;;;;;20.38;10.48;;;21.20;99.90;;;;;;4862356;29;20479;-83
2023/06/28 10:33:33;;;;;;;17.92;11.88;;;21.20;99.90;;;;;;4862948;29;20052;-83
2023/06/28 10:36:02;;;;;;;14.15;11.05;;;21.20;99.90;;;;;;4861698;29;20494;-83
2023/06/28 10:38:38;;;;;;;19.58;11.18;;;21.30;99.90;;;;;;4862565;29;20475;-83
2023/06/28 10:41:05;;;;;;;14.23;10.15;;;21.30;99.90;;;;;;4862350;29;20444;-84
2023/06/28 10:43:31;;;;;;;19.45;11.90;;;21.30;99.90;;;;;;4861679;29;20479;-84
2023/06/28 10:45:57;;;;;;;27.08;12.00;;;21.30;99.90;;;;;;4862324;29;20037;-84
2023/06/28 10:48:25;;;;;;;19.65;11.00;;;21.30;99.90;;;;;;4862672;29;20037;-84
2023/06/28 10:50:51;;;;;;;21.85;11.50;;;21.30;99.90;;;;;;4862109;29;20068;-83
2023/06/28 10:53:28;;;;;;;20.48;12.25;;;21.30;99.90;;;;;;4862252;29;20486;-83
2023/06/28 10:56:13;;;;;;;18.88;11.63;;;21.50;99.90;;;;;;4861504;29;20509;-83
2023/06/28 10:58:41;;;;;;;17.10;11.52;;;21.60;99.90;;;;;;4862113;29;20025;-83
2023/06/28 11:01:31;;;;;;;18.65;11.48;;;21.50;99.90;;;;;;4862396;29;20029;-83
2023/06/28 11:04:11;;;;;;;26.20;12.88;;;21.50;99.90;;;;;;4854825;29;20094;-83
2023/06/28 11:06:40;;;;;;;;;;;21.60;99.90;;;;;;4862668;29;20037;-83
2023/06/28 11:09:23;;;;;;;18.48;10.95;;;21.60;99.90;;;;;;4861994;29;19960;-82
2023/06/28 11:11:57;;;;;;;17.98;11.60;;;21.70;99.90;;;;;;4861227;29;20053;-83
2023/06/28 11:14:31;;;;;;;20.85;12.60;;;21.60;99.90;;;;;;4862125;29;20446;-83
2023/06/28 11:17:14;;;;;;;23.25;12.43;;;21.70;99.90;;;;;;4860930;29;20044;-83
2023/06/28 11:19:41;;;;;;;19.80;14.18;;;21.60;99.90;;;;;;4862038;29;20045;-83
2023/06/28 11:22:07;;;;;;;20.73;14.25;;;21.70;99.90;;;;;;4861567;29;20062;-83
2023/06/28 11:24:38;;;;;;;24.75;14.20;;;21.70;99.90;;;;;;4861326;29;20053;-83
2023/06/28 11:27:16;;;;;;;26.88;14.93;;;21.60;99.90;;;;;;4860834;29;20038;-83
2023/06/28 11:30:02;;;;;;;25.50;14.73;;;21.60;99.90;;;;;;4862520;29;20053;-83
2023/06/28 11:32:31;;;;;;;21.95;14.18;;;21.50;99.90;;;;;;4861003;29;20034;-83
2023/06/28 11:34:59;;;;;;;34.88;18.35;;;21.40;99.90;;;;;;4861249;29;20509;-83
2023/06/28 11:37:26;;;;;;;23.35;14.63;;;21.50;99.90;;;;;;4861411;29;20037;-83
2023/06/28 11:39:52;;;;;;;17.70;13.68;;;22.10;99.90;;;;;;4860574;29;20443;-83
2023/06/28 11:42:19;;;;;;;26.45;16.42;;;21.50;99.90;;;;;;4861432;29;20089;-83
2023/06/28 11:44:46;;;;;;;22.98;16.10;;;21.50;99.90;;;;;;4860705;29;20394;-83
2023/06/28 11:47:12;;;;;;;24.25;16.70;;;21.50;99.90;;;;;;4861545;29;20376;-83
2023/06/28 11:49:37;;;;;;;28.40;19.67;;;22.20;99.90;;;;;;4861175;29;20065;-83
2023/06/28 11:52:04;;;;;;;23.63;17.88;;;21.50;99.90;;;;;;4860393;29;20030;-83
2023/06/28 11:54:34;;;;;;;29.23;19.55;;;21.40;99.90;;;;;;4860901;29;20390;-83
2023/06/28 11:57:00;;;;;;;34.55;18.52;;;21.40;99.90;;;;;;4861225;29;20029;-82
2023/06/28 11:59:26;;;;;;;26.00;18.52;;;21.40;99.90;;;;;;4860641;29;20036;-83
2023/06/28 12:02:05;;;;;;;27.13;17.92;;;21.40;99.90;;;;;;4860803;29;20030;-82
2023/06/28 12:04:33;;;;;;;19.90;17.52;;;21.40;99.90;;;;;;4861016;29;20510;-83
2023/06/28 12:07:01;;;;;;;23.02;17.45;;;21.40;99.90;;;;;;4860066;29;20030;-83
2023/06/28 12:09:28;;;;;;;30.10;19.38;;;21.40;99.90;;;;;;4861171;29;20049;-83
2023/06/28 12:12:07;;;;;;;30.67;20.30;;;21.40;99.90;;;;;;4860766;29;20025;-83
2023/06/28 12:14:43;;;;;;;25.25;19.08;;;21.30;99.90;;;;;;4860396;29;20031;-83
2023/06/28 12:17:09;;;;;;;30.17;19.52;;;21.30;99.90;;;;;;4860718;29;20037;-83
2023/06/28 12:19:35;;;;;;;21.23;18.05;;;21.70;99.90;;;;;;4860827;29;20406;-83
2023/06/28 12:22:03;;;;;;;29.92;18.45;;;21.40;99.90;;;;;;4859860;29;20037;-83
2023/06/28 12:24:30;;;;;;;25.52;18.00;;;21.40;99.90;;;;;;4860456;29;20060;-83
2023/06/28 12:26:58;;;;;;;21.55;16.80;;;21.40;99.90;;;;;;4859854;29;20042;-82
2023/06/28 12:29:44;;;;;;;33.60;16.92;;;21.30;99.90;;;;;;4860719;29;20030;-83
2023/06/28 12:32:16;;;;;;;24.27;17.02;;;21.40;99.90;;;;;;4860907;29;20033;-83
2023/06/28 12:34:49;;;;;;;23.15;17.33;;;21.30;99.90;;;;;;4859993;29;20034;-83
2023/06/28 12:37:15;;;;;;;24.33;16.73;;;21.30;99.90;;;;;;4860275;29;20032;-83